createdAt,value
2019-05-26T00:01:46.016Z,81.67
2019-05-26T00:06:47.636Z,81.31
2019-05-26T00:11:49.217Z,79.35
2019-05-26T00:16:50.690Z,83.21
2019-05-26T00:21:53.383Z,84.66
2019-05-26T00:26:55.946Z,82.44
2019-05-26T00:31:58.564Z,82.78
2019-05-26T00:37:00.338Z,83.82
2019-05-26T00:42:03.735Z,86.78
2019-05-26T00:47:05.517Z,86.93
2019-05-26T00:52:07.094Z,86.16
2019-05-26T00:57:08.883Z,87.28
2019-05-26T01:02:11.598Z,87.12
2019-05-26T01:07:13.110Z,86.80
2019-05-26T01:12:14.687Z,86.12
2019-05-26T01:17:16.166Z,85.63
2019-05-26T01:22:17.842Z,86.41
2019-05-26T01:27:19.348Z,86.73
2019-05-26T01:32:20.951Z,87.13
2019-05-26T01:37:22.644Z,85.83
2019-05-26T01:42:24.146Z,86.60
2019-05-26T01:47:25.746Z,86.14
2019-05-26T01:52:27.355Z,86.88
2019-05-26T01:57:28.854Z,88.30
2019-05-26T02:02:30.346Z,87.50
2019-05-26T02:07:32.019Z,88.35
2019-05-26T02:12:33.679Z,88.70
2019-05-26T02:17:35.353Z,88.43
2019-05-26T02:22:36.929Z,88.04
2019-05-26T02:27:38.499Z,88.53
2019-05-26T02:32:40.130Z,88.03
2019-05-26T02:37:43.042Z,88.09
2019-05-26T02:42:44.925Z,87.81
2019-05-26T02:47:46.465Z,87.15
2019-05-26T02:52:47.924Z,88.37
2019-05-26T02:57:49.503Z,87.52
2019-05-26T03:02:51.437Z,88.63
2019-05-26T03:07:53.714Z,88.30
2019-05-26T03:12:58.095Z,89.64
2019-05-26T03:18:03.980Z,88.75
2019-05-26T03:23:06.673Z,89.37
2019-05-26T03:28:08.345Z,88.26
2019-05-26T03:33:10.076Z,89.01
2019-05-26T03:38:11.739Z,91.57
2019-05-26T03:43:13.214Z,90.31
2019-05-26T03:48:14.722Z,90.87
2019-05-26T03:53:16.359Z,89.56
2019-05-26T03:58:17.833Z,91.09
2019-05-26T04:03:19.335Z,90.11
2019-05-26T04:08:21.251Z,90.55
2019-05-26T04:13:22.720Z,89.80
2019-05-26T04:18:25.297Z,90.64
2019-05-26T04:23:26.871Z,89.86
2019-05-26T04:28:28.798Z,89.50
2019-05-26T04:33:30.375Z,88.55
2019-05-26T04:38:31.964Z,89.08
2019-05-26T04:43:33.550Z,88.71
2019-05-26T04:48:35.146Z,90.17
2019-05-26T04:53:36.734Z,89.75
2019-05-26T04:58:38.313Z,90.11
2019-05-26T05:03:40.130Z,89.93
2019-05-26T05:08:41.640Z,88.71
2019-05-26T05:13:43.112Z,88.66
2019-05-26T05:18:44.584Z,88.43
2019-05-26T05:23:46.063Z,87.96
2019-05-26T05:28:47.545Z,87.06
2019-05-26T05:33:49.074Z,88.00
2019-05-26T05:38:50.656Z,87.61
2019-05-26T05:43:52.258Z,85.47
2019-05-26T05:48:54.109Z,85.53
2019-05-26T05:53:55.572Z,84.85
2019-05-26T05:58:57.046Z,84.78
2019-05-26T06:03:58.587Z,83.78
2019-05-26T06:09:00.098Z,83.27
2019-05-26T06:14:02.849Z,81.65
2019-05-26T06:19:05.648Z,83.81
2019-05-26T06:24:07.110Z,79.43
2019-05-26T06:29:08.683Z,81.24
2019-05-26T06:34:10.317Z,81.40
2019-05-26T06:39:11.801Z,81.97
2019-05-26T06:44:13.271Z,81.59
2019-05-26T06:49:14.784Z,77.54
2019-05-26T06:54:16.783Z,77.35
2019-05-26T06:59:18.268Z,80.22
2019-05-26T07:04:19.779Z,78.37
2019-05-26T07:09:21.695Z,75.16
2019-05-26T07:14:23.167Z,73.65
2019-05-26T07:19:24.742Z,75.85
2019-05-26T07:24:29.336Z,75.43
2019-05-26T07:29:29.868Z,77.64
2019-05-26T07:34:31.402Z,70.48
2019-05-26T07:39:33.022Z,69.37
2019-05-26T07:44:34.571Z,70.71
2019-05-26T07:49:36.095Z,68.02
2019-05-26T07:54:37.565Z,67.74
2019-05-26T07:59:40.246Z,63.68
2019-05-26T08:04:41.868Z,65.80
2019-05-26T08:09:43.447Z,63.43
2019-05-26T08:14:44.922Z,64.64
2019-05-26T08:19:46.902Z,64.94
2019-05-26T08:24:48.649Z,66.11
2019-05-26T08:29:50.310Z,63.32
2019-05-26T08:34:51.834Z,62.68
2019-05-26T08:39:55.263Z,65.79
2019-05-26T08:44:57.132Z,63.58
2019-05-26T08:49:58.678Z,67.34
2019-05-26T08:55:00.567Z,62.13
2019-05-26T09:00:06.143Z,65.69
2019-05-26T09:05:08.476Z,66.32
2019-05-26T09:10:10.590Z,65.05
2019-05-26T09:15:13.762Z,65.92
2019-05-26T09:20:16.163Z,67.55
2019-05-26T09:25:17.865Z,62.42
2019-05-26T09:30:20.772Z,63.74
2019-05-26T09:35:22.418Z,60.76
2019-05-26T09:40:24.052Z,62.53
2019-05-26T09:45:25.619Z,60.37
2019-05-26T09:50:27.308Z,61.90
2019-05-26T09:55:29.875Z,65.08
2019-05-26T10:00:31.664Z,65.42
2019-05-26T10:05:33.373Z,67.04
2019-05-26T10:10:34.992Z,64.81
2019-05-26T10:15:37.775Z,60.59
2019-05-26T10:20:39.263Z,59.29
2019-05-26T10:25:40.842Z,63.27
2019-05-26T10:30:43.324Z,64.10
2019-05-26T10:35:44.803Z,57.36
2019-05-26T10:40:46.318Z,63.43
2019-05-26T10:45:47.996Z,59.88
2019-05-26T10:50:49.618Z,61.09
2019-05-26T10:55:51.107Z,60.17
2019-05-26T11:00:52.910Z,60.25
2019-05-26T11:05:54.379Z,58.93
2019-05-26T11:10:55.910Z,57.39
2019-05-26T11:15:57.383Z,52.17
2019-05-26T11:20:58.863Z,51.04
2019-05-26T11:26:00.345Z,55.84
2019-05-26T11:31:01.916Z,53.50
2019-05-26T11:36:03.592Z,54.77
2019-05-26T11:41:05.322Z,52.19
2019-05-26T11:46:06.802Z,52.99
2019-05-26T11:51:08.331Z,58.15
2019-05-26T11:56:09.802Z,52.66
2019-05-26T12:01:11.282Z,50.49
2019-05-26T12:06:12.769Z,52.21
2019-05-26T12:11:14.290Z,54.21
2019-05-26T12:16:15.770Z,54.45
2019-05-26T12:21:17.463Z,54.77
2019-05-26T12:26:18.940Z,55.98
2019-05-26T12:31:20.454Z,55.14
2019-05-26T12:36:21.991Z,54.78
2019-05-26T12:41:23.719Z,53.89
2019-05-26T12:46:26.004Z,54.40
2019-05-26T12:51:27.736Z,52.66
2019-05-26T12:56:29.512Z,57.40
2019-05-26T13:01:31.092Z,54.67
2019-05-26T13:06:32.622Z,52.64
2019-05-26T13:11:34.257Z,52.26
2019-05-26T13:16:36.157Z,51.70
2019-05-26T13:21:38.016Z,52.11
2019-05-26T13:26:39.503Z,53.15
2019-05-26T13:31:41.027Z,53.86
2019-05-26T13:36:42.502Z,54.85
2019-05-26T13:41:44.009Z,49.19
2019-05-26T13:46:45.484Z,47.68
2019-05-26T13:51:50.243Z,49.24
2019-05-26T13:56:50.541Z,51.37
2019-05-26T14:01:52.119Z,50.26
2019-05-26T14:06:53.650Z,54.03
2019-05-26T14:11:55.891Z,51.39
2019-05-26T14:16:59.691Z,53.33
2019-05-26T14:22:01.177Z,53.20
2019-05-26T14:27:02.970Z,48.74
2019-05-26T14:32:04.642Z,53.08
2019-05-26T14:37:06.222Z,51.83
2019-05-26T14:42:07.856Z,49.79
2019-05-26T14:47:09.331Z,52.54
2019-05-26T14:52:10.824Z,48.99
2019-05-26T14:57:12.301Z,48.57
2019-05-26T15:02:13.871Z,50.24
2019-05-26T15:07:15.408Z,53.73
2019-05-26T15:12:17.025Z,56.38
2019-05-26T15:17:18.610Z,50.45
2019-05-26T15:22:20.087Z,51.87
2019-05-26T15:27:21.571Z,55.45
2019-05-26T15:32:23.175Z,50.17
2019-05-26T15:37:24.653Z,48.71
2019-05-26T15:42:26.466Z,52.20
2019-05-26T15:47:27.949Z,49.61
2019-05-26T15:52:29.427Z,51.60
2019-05-26T15:57:32.229Z,52.26
2019-05-26T16:02:33.813Z,54.01
2019-05-26T16:07:35.431Z,52.09
2019-05-26T16:12:37.167Z,50.57
2019-05-26T16:17:39.290Z,53.91
2019-05-26T16:22:40.928Z,53.09
2019-05-26T16:27:42.409Z,54.04
2019-05-26T16:32:43.884Z,53.44
2019-05-26T16:37:45.366Z,57.87
2019-05-26T16:42:46.889Z,54.67
2019-05-26T16:47:48.411Z,56.38
2019-05-26T16:52:49.890Z,57.96
2019-05-26T16:57:51.597Z,57.63
2019-05-26T17:02:53.074Z,56.29
2019-05-26T17:07:54.593Z,57.65
2019-05-26T17:12:56.178Z,58.35
2019-05-26T17:17:57.708Z,59.27
2019-05-26T17:22:59.485Z,57.83
2019-05-26T17:28:01.221Z,59.78
2019-05-26T17:33:03.314Z,60.93
2019-05-26T17:38:04.984Z,64.50
2019-05-26T17:43:07.767Z,64.63
2019-05-26T17:48:09.284Z,60.52
2019-05-26T17:53:10.965Z,62.21
2019-05-26T17:58:12.545Z,62.18
2019-05-26T18:03:14.239Z,63.16
2019-05-26T18:08:15.954Z,62.43
2019-05-26T18:13:17.536Z,62.58
2019-05-26T18:18:19.220Z,63.42
2019-05-26T18:23:20.738Z,62.68
2019-05-26T18:28:23.624Z,64.98
2019-05-26T18:33:25.204Z,65.67
2019-05-26T18:38:27.102Z,66.65
2019-05-26T18:43:28.678Z,65.25
2019-05-26T18:48:30.204Z,66.68
2019-05-26T18:53:31.994Z,66.55
2019-05-26T18:58:33.663Z,65.59
2019-05-26T19:03:35.154Z,66.49
2019-05-26T19:08:36.877Z,67.03
2019-05-26T19:13:38.352Z,67.38
2019-05-26T19:18:40.081Z,67.82
2019-05-26T19:23:41.554Z,65.66
2019-05-26T19:28:43.042Z,66.75
2019-05-26T19:33:44.652Z,67.63
2019-05-26T19:38:46.232Z,68.36
2019-05-26T19:43:47.807Z,67.91
2019-05-26T19:48:49.334Z,67.64
2019-05-26T19:53:50.916Z,67.83
2019-05-26T19:58:52.496Z,68.21
2019-05-26T20:03:54.076Z,68.54
2019-05-26T20:08:55.595Z,68.40
2019-05-26T20:13:57.180Z,68.36
2019-05-26T20:18:59.118Z,68.03
2019-05-26T20:24:00.594Z,68.28
2019-05-26T20:29:02.300Z,68.33
2019-05-26T20:34:04.002Z,68.75
2019-05-26T20:39:08.172Z,68.72
2019-05-26T20:44:09.646Z,68.87
2019-05-26T20:49:11.167Z,68.44
2019-05-26T20:54:12.653Z,68.68
2019-05-26T20:59:14.138Z,68.73
2019-05-26T21:04:15.894Z,68.61
2019-05-26T21:09:17.376Z,69.00
2019-05-26T21:14:18.855Z,68.84
2019-05-26T21:19:20.483Z,68.84
2019-05-26T21:24:21.956Z,69.27
2019-05-26T21:29:23.433Z,69.84
2019-05-26T21:34:24.976Z,70.12
2019-05-26T21:39:26.482Z,69.75
2019-05-26T21:44:27.950Z,69.63
2019-05-26T21:49:29.485Z,69.61
2019-05-26T21:54:31.100Z,69.95
2019-05-26T21:59:32.592Z,69.67
2019-05-26T22:04:35.163Z,70.51
2019-05-26T22:09:37.787Z,71.41
2019-05-26T22:14:39.355Z,71.87
2019-05-26T22:19:41.031Z,71.39
2019-05-26T22:24:42.517Z,71.56
2019-05-26T22:29:43.995Z,71.56
2019-05-26T22:34:45.568Z,72.12
2019-05-26T22:39:47.088Z,72.41
2019-05-26T22:44:48.535Z,73.25
2019-05-26T22:49:50.141Z,73.61
2019-05-26T22:54:51.656Z,74.75
2019-05-26T22:59:53.243Z,75.13
2019-05-26T23:04:54.925Z,75.07
2019-05-26T23:09:56.542Z,75.22
2019-05-26T23:14:58.027Z,75.14
2019-05-26T23:19:59.756Z,75.35
2019-05-26T23:25:01.276Z,76.11
2019-05-26T23:30:05.920Z,76.57
2019-05-26T23:35:08.196Z,77.53
2019-05-26T23:40:10.076Z,78.77
2019-05-26T23:45:12.158Z,79.56
2019-05-26T23:50:13.879Z,79.80
2019-05-26T23:55:15.532Z,80.58
